Aulander, North Carolina
Current Conditions -  °F | °C
As of 7:35 AM on Monday 26 Jan 2015 (Local Time) from KASJ Reporting Station
Haze Haze  
Wind Chill:   Ceiling: Unl
Heat Index:   Visibility: 5mi
Dew Point:   Wind: 0mph
Humidity: 97%   Direction: NA
Pressure: 29.72"   Gusts: NA
Location:  36.23°N, 77.11°W
Report Text: KASJ 261235Z AUTO 00000KT 5SM BR CLR 02/01 A2972 RMK AO2 T00160011
Loading
Personal Weather Stations






























Interactive Weather Map New forecast layout! Learn more

10-Day Weather Forecast

Advertisements
Track Severe Weather on mobile